Hauptseite
METAR-TAF:

METAR-TAF

Flughäfen :

Finkenwerder, Deutschland

Flugplatz Hamburg-Finkenwerder

Breite: 53-32N, Länge: 009-50E, Höhe: 5 m

Beobachtung

Neuester Wetterbericht von vor 38 Minuten, um 19:50 UTC
Wind 5 kt aus West/Südwest
Temperatur 3°C
Luftfeuchtigkeit 81%
Luftdruck 1027 hPa
Sichtweite 10 km oder mehr

METAR: EDHI 181950Z AUTO 25005KT 9999 // BKN019/// OVC028/// 03/00 Q1027

Zeit: 21:28 (20:28 UTC)

Prognose

Neuester Wetterbericht von vor 3 Stunden und 28 Minuten, um 17:00 UTC
Gültige Prognose vom 18 um 18 UTC bis 18 um 21 UTC
Wind 3 kt aus unterschiedlichen Richtungen
Sichtweite 10 km oder mehr
Leicht bewölkt in der Höhe von 3000 ft
Übergehend zu
vom 18 um 18 UTC bis 18 um 21 UTC
Durchbrochene Bewölkung in der Höhe von 1400 ft

TAF: EDHI 181700Z 1818/1821 VRB03KT 9999 FEW030 BECMG 1818/1821 BKN014

Wetterbeobachtungen und Prognosen von mehr als 4000 Flughäfen (METAR und TAF Bericht).

Die verfügbaren Stationen werden durch gelbe und rote Markierungen auf der Karte dargestellt.

Führen Sie die Maus auf sie, um den Namen der Station zu sehen.

Darauf klicken, um die Beobachtung von Wetterbeobachtungen und Prognosen zu sehen.

Um die Karte zu ändern : klicken Sie auf den grünen Tasten mit einem schwarzen Kreuz Zum Vergrößern, auf den grünen Button mit einem Gedankenstrich zu verkleinern, oder auf die grünen Pfeile für benachbarte Karten.


METAR-TAF: